createdAt,value
2019-02-15T00:00:31.303Z,1028.66
2019-02-15T00:01:31.276Z,1028.66
2019-02-15T00:02:31.242Z,1028.63
2019-02-15T00:03:31.225Z,1028.62
2019-02-15T00:04:31.196Z,1028.65
2019-02-15T00:05:31.176Z,1028.64
2019-02-15T00:06:31.141Z,1028.66
2019-02-15T00:07:31.116Z,1028.61
2019-02-15T00:08:31.096Z,1028.66
2019-02-15T00:09:31.063Z,1028.70
2019-02-15T00:10:31.052Z,1028.67
2019-02-15T00:11:31.010Z,1028.63
2019-02-15T00:12:30.989Z,1028.64
2019-02-15T00:13:30.966Z,1028.62
2019-02-15T00:14:30.931Z,1028.59
2019-02-15T00:15:30.905Z,1028.60
2019-02-15T00:16:30.887Z,1028.57
2019-02-15T00:17:30.853Z,1028.60
2019-02-15T00:18:30.828Z,1028.58
2019-02-15T00:19:30.801Z,1028.53
2019-02-15T00:20:30.776Z,1028.55
2019-02-15T00:21:30.750Z,1028.56
2019-02-15T00:22:30.735Z,1028.55
2019-02-15T00:23:30.701Z,1028.53
2019-02-15T00:24:30.678Z,1028.53
2019-02-15T00:25:30.649Z,1028.56
2019-02-15T00:26:30.621Z,1028.56
2019-02-15T00:27:30.599Z,1028.54
2019-02-15T00:28:30.568Z,1028.55
2019-02-15T00:29:30.543Z,1028.57
2019-02-15T00:30:30.521Z,1028.58
2019-02-15T00:31:30.506Z,1028.60
2019-02-15T00:32:30.472Z,1028.63
2019-02-15T00:33:30.438Z,1028.62
2019-02-15T00:34:30.413Z,1028.65
2019-02-15T00:35:30.385Z,1028.64
2019-02-15T00:36:30.368Z,1028.59
2019-02-15T00:37:30.338Z,1028.63
2019-02-15T00:38:30.312Z,1028.62
2019-02-15T00:39:30.290Z,1028.62
2019-02-15T00:40:30.260Z,1028.61
2019-02-15T00:41:30.237Z,1028.64
2019-02-15T00:42:30.203Z,1028.58
2019-02-15T00:43:30.185Z,1028.62
2019-02-15T00:44:30.150Z,1028.64
2019-02-15T00:45:30.125Z,1028.65
2019-02-15T00:46:30.099Z,1028.65
2019-02-15T00:47:30.075Z,1028.65
2019-02-15T00:48:30.046Z,1028.63
2019-02-15T00:49:30.035Z,1028.63
2019-02-15T00:50:30.006Z,1028.62
2019-02-15T00:51:29.973Z,1028.62
2019-02-15T00:52:29.944Z,1028.62
2019-02-15T00:53:29.947Z,1028.61
2019-02-15T00:54:29.891Z,1028.59
2019-02-15T00:55:29.869Z,1028.65
2019-02-15T00:56:29.839Z,1028.61
2019-02-15T00:57:29.824Z,1028.62
2019-02-15T00:58:29.784Z,1028.62
2019-02-15T00:59:29.759Z,1028.61
2019-02-15T01:00:29.734Z,1028.64
2019-02-15T01:01:29.718Z,1028.60
2019-02-15T01:02:29.681Z,1028.60
2019-02-15T01:03:29.656Z,1028.63
2019-02-15T01:04:29.630Z,1028.62
2019-02-15T01:05:29.604Z,1028.62
2019-02-15T01:06:29.576Z,1028.62
2019-02-15T01:07:29.556Z,1028.57
2019-02-15T01:08:29.533Z,1028.60
2019-02-15T01:09:29.510Z,1028.59
2019-02-15T01:10:29.480Z,1028.63
2019-02-15T01:11:29.455Z,1028.60
2019-02-15T01:12:29.422Z,1028.61
2019-02-15T01:13:31.111Z,1028.60
2019-02-15T01:14:29.369Z,1028.59
2019-02-15T01:15:29.346Z,1028.62
2019-02-15T01:16:29.315Z,1028.59
2019-02-15T01:17:29.290Z,1028.60
2019-02-15T01:18:29.413Z,1028.59
2019-02-15T01:19:29.245Z,1028.59
2019-02-15T01:20:29.214Z,1028.58
2019-02-15T01:21:29.198Z,1028.62
2019-02-15T01:22:29.158Z,1028.57
2019-02-15T01:23:29.135Z,1028.54
2019-02-15T01:24:29.106Z,1028.57
2019-02-15T01:25:29.129Z,1028.56
2019-02-15T01:26:29.054Z,1028.53
2019-02-15T01:27:29.045Z,1028.55
2019-02-15T01:28:29.001Z,1028.53
2019-02-15T01:29:28.975Z,1028.54
2019-02-15T01:30:28.953Z,1028.54
2019-02-15T01:31:28.922Z,1028.57
2019-02-15T01:32:28.895Z,1028.53
2019-02-15T01:33:28.869Z,1028.58
2019-02-15T01:34:28.841Z,1028.56
2019-02-15T01:35:28.818Z,1028.55
2019-02-15T01:36:28.811Z,1028.50
2019-02-15T01:37:28.765Z,1028.52
2019-02-15T01:38:28.737Z,1028.48
2019-02-15T01:39:28.717Z,1028.54
2019-02-15T01:40:28.683Z,1028.51
2019-02-15T01:41:28.663Z,1028.47
2019-02-15T01:42:28.631Z,1028.45
2019-02-15T01:43:28.714Z,1028.48
2019-02-15T01:44:28.578Z,1028.46
2019-02-15T01:45:28.580Z,1028.49
2019-02-15T01:46:28.529Z,1028.44
2019-02-15T01:47:28.504Z,1028.46
2019-02-15T01:48:28.474Z,1028.42
2019-02-15T01:49:28.447Z,1028.42
2019-02-15T01:50:28.422Z,1028.38
2019-02-15T01:51:28.398Z,1028.33
2019-02-15T01:52:28.379Z,1028.33
2019-02-15T01:53:28.341Z,1028.30
2019-02-15T01:54:28.346Z,1028.31
2019-02-15T01:55:28.287Z,1028.32
2019-02-15T01:56:28.261Z,1028.28
2019-02-15T01:57:28.235Z,1028.30
2019-02-15T01:58:28.216Z,1028.28
2019-02-15T01:59:28.192Z,1028.30
2019-02-15T02:00:28.156Z,1028.26
2019-02-15T02:01:28.137Z,1028.22
2019-02-15T02:02:28.103Z,1028.25
2019-02-15T02:03:28.078Z,1028.25
2019-02-15T02:04:28.048Z,1028.19
2019-02-15T02:05:28.031Z,1028.20
2019-02-15T02:06:27.995Z,1028.24
2019-02-15T02:07:27.980Z,1028.23
2019-02-15T02:08:27.952Z,1028.25
2019-02-15T02:09:27.918Z,1028.25
2019-02-15T02:10:27.899Z,1028.19
2019-02-15T02:11:27.872Z,1028.25
2019-02-15T02:12:27.843Z,1028.20
2019-02-15T02:13:27.830Z,1028.15
2019-02-15T02:14:27.784Z,1028.17
2019-02-15T02:15:27.764Z,1028.21
2019-02-15T02:16:27.731Z,1028.18
2019-02-15T02:17:27.722Z,1028.11
2019-02-15T02:18:27.677Z,1028.10
2019-02-15T02:19:27.651Z,1028.10
2019-02-15T02:20:27.630Z,1028.07
2019-02-15T02:21:27.597Z,1028.04
2019-02-15T02:22:27.578Z,1028.05
2019-02-15T02:23:27.563Z,1028.03
2019-02-15T02:24:27.526Z,1028.01
2019-02-15T02:25:27.595Z,1028.01
2019-02-15T02:26:27.464Z,1027.97
2019-02-15T02:27:27.437Z,1027.98
2019-02-15T02:28:27.410Z,1027.98
2019-02-15T02:29:27.401Z,1027.96
2019-02-15T02:30:27.364Z,1027.94
2019-02-15T02:31:27.334Z,1027.97
2019-02-15T02:32:27.306Z,1027.92
2019-02-15T02:33:27.280Z,1027.92
2019-02-15T02:34:27.260Z,1027.97
2019-02-15T02:35:27.224Z,1027.94
2019-02-15T02:36:27.198Z,1027.94
2019-02-15T02:37:27.172Z,1027.92
2019-02-15T02:38:27.144Z,1027.96
2019-02-15T02:39:27.117Z,1027.94
2019-02-15T02:40:27.107Z,1027.93
2019-02-15T02:41:27.077Z,1027.91
2019-02-15T02:42:27.048Z,1027.94
2019-02-15T02:43:27.013Z,1027.92
2019-02-15T02:44:27.018Z,1027.92
2019-02-15T02:45:26.967Z,1027.93
2019-02-15T02:46:26.931Z,1027.90
2019-02-15T02:47:26.903Z,1027.96
2019-02-15T02:48:26.877Z,1027.94
2019-02-15T02:49:26.855Z,1027.93
2019-02-15T02:50:26.834Z,1027.90
2019-02-15T02:51:26.795Z,1027.91
2019-02-15T02:52:26.777Z,1027.87
2019-02-15T02:53:26.745Z,1027.88
2019-02-15T02:54:26.716Z,1027.89
2019-02-15T02:55:26.701Z,1027.89
2019-02-15T02:56:26.665Z,1027.85
2019-02-15T02:57:26.670Z,1027.88
2019-02-15T02:58:26.609Z,1027.87
2019-02-15T02:59:26.588Z,1027.84
2019-02-15T03:00:33.317Z,1027.83
2019-02-15T03:01:26.671Z,1027.83
2019-02-15T03:02:26.514Z,1027.78
2019-02-15T03:03:26.475Z,1027.83
2019-02-15T03:04:26.465Z,1027.83
2019-02-15T03:05:26.424Z,1027.79
2019-02-15T03:06:26.395Z,1027.80
2019-02-15T03:07:26.387Z,1027.80
2019-02-15T03:08:26.340Z,1027.84
2019-02-15T03:09:26.326Z,1027.76
2019-02-15T03:10:26.286Z,1027.78
2019-02-15T03:11:26.266Z,1027.79
2019-02-15T03:12:26.231Z,1027.80
2019-02-15T03:13:26.213Z,1027.82
2019-02-15T03:14:26.179Z,1027.80
2019-02-15T03:15:26.169Z,1027.80
2019-02-15T03:16:26.125Z,1027.77
2019-02-15T03:17:26.101Z,1027.79
2019-02-15T03:18:26.070Z,1027.76
2019-02-15T03:19:26.044Z,1027.74
2019-02-15T03:20:31.311Z,1027.71
2019-02-15T03:21:25.992Z,1027.70
2019-02-15T03:22:25.962Z,1027.71
2019-02-15T03:23:25.939Z,1027.69
2019-02-15T03:24:25.912Z,1027.64
2019-02-15T03:25:25.882Z,1027.67
2019-02-15T03:26:25.857Z,1027.64
2019-02-15T03:27:25.836Z,1027.66
2019-02-15T03:28:25.803Z,1027.66
2019-02-15T03:29:25.782Z,1027.66
2019-02-15T03:30:25.753Z,1027.65
2019-02-15T03:31:25.723Z,1027.65
2019-02-15T03:32:25.723Z,1027.66
2019-02-15T03:33:25.679Z,1027.63
2019-02-15T03:34:25.671Z,1027.64
2019-02-15T03:35:25.613Z,1027.62
2019-02-15T03:36:25.587Z,1027.63
2019-02-15T03:37:25.558Z,1027.59
2019-02-15T03:38:25.536Z,1027.62
2019-02-15T03:39:25.504Z,1027.61
2019-02-15T03:40:25.489Z,1027.60
2019-02-15T03:41:25.455Z,1027.53
2019-02-15T03:42:25.433Z,1027.57
2019-02-15T03:43:25.497Z,1027.55
2019-02-15T03:44:25.369Z,1027.54
2019-02-15T03:45:25.345Z,1027.54
2019-02-15T03:46:25.318Z,1027.55
2019-02-15T03:47:25.291Z,1027.49
2019-02-15T03:48:25.262Z,1027.52
2019-02-15T03:49:25.235Z,1027.53
2019-02-15T03:50:25.219Z,1027.51
2019-02-15T03:51:25.190Z,1027.51
2019-02-15T03:52:25.154Z,1027.51
2019-02-15T03:53:25.134Z,1027.52
2019-02-15T03:54:25.100Z,1027.55
2019-02-15T03:55:25.083Z,1027.50
2019-02-15T03:56:25.045Z,1027.46
2019-02-15T03:57:25.032Z,1027.46
2019-02-15T03:58:25.008Z,1027.47
2019-02-15T03:59:24.964Z,1027.41
2019-02-15T04:00:24.942Z,1027.46
2019-02-15T04:01:24.909Z,1027.46
2019-02-15T04:02:24.884Z,1027.47
2019-02-15T04:03:24.854Z,1027.46
2019-02-15T04:04:24.829Z,1027.46
2019-02-15T04:05:24.803Z,1027.44
2019-02-15T04:06:24.773Z,1027.45
2019-02-15T04:07:24.777Z,1027.44
2019-02-15T04:08:24.718Z,1027.45
2019-02-15T04:09:24.696Z,1027.42
2019-02-15T04:10:24.666Z,1027.46
2019-02-15T04:11:24.660Z,1027.45
2019-02-15T04:12:24.611Z,1027.44
2019-02-15T04:13:24.593Z,1027.47
2019-02-15T04:14:32.602Z,1027.44
2019-02-15T04:15:24.531Z,1027.46
2019-02-15T04:16:24.506Z,1027.43
2019-02-15T04:17:24.477Z,1027.50
2019-02-15T04:18:24.455Z,1027.49
2019-02-15T04:19:24.427Z,1027.47
2019-02-15T04:20:24.406Z,1027.46
2019-02-15T04:21:24.367Z,1027.48
2019-02-15T04:22:24.344Z,1027.53
2019-02-15T04:23:24.317Z,1027.50
2019-02-15T04:24:24.287Z,1027.53
2019-02-15T04:25:24.363Z,1027.54
2019-02-15T04:26:24.229Z,1027.56
2019-02-15T04:27:24.206Z,1027.56
2019-02-15T04:28:24.177Z,1027.52
2019-02-15T04:29:24.158Z,1027.56
2019-02-15T04:30:24.123Z,1027.57
2019-02-15T04:31:24.096Z,1027.54
2019-02-15T04:32:24.069Z,1027.56
2019-02-15T04:33:24.049Z,1027.56
2019-02-15T04:34:24.014Z,1027.53
2019-02-15T04:35:23.989Z,1027.51
2019-02-15T04:36:23.968Z,1027.53
2019-02-15T04:37:23.945Z,1027.50
2019-02-15T04:38:23.905Z,1027.50
2019-02-15T04:39:23.878Z,1027.50
2019-02-15T04:40:23.859Z,1027.49
2019-02-15T04:41:23.826Z,1027.49
2019-02-15T04:42:23.796Z,1027.52
2019-02-15T04:43:23.769Z,1027.49
2019-02-15T04:44:23.745Z,1027.54
2019-02-15T04:45:23.715Z,1027.53
2019-02-15T04:46:23.689Z,1027.56
2019-02-15T04:47:23.670Z,1027.56
2019-02-15T04:48:23.636Z,1027.59
2019-02-15T04:49:23.607Z,1027.57
2019-02-15T04:50:23.588Z,1027.60
2019-02-15T04:51:23.554Z,1027.57
2019-02-15T04:52:23.523Z,1027.58
2019-02-15T04:53:23.500Z,1027.57
2019-02-15T04:54:23.474Z,1027.58
2019-02-15T04:55:23.444Z,1027.57
2019-02-15T04:56:23.472Z,1027.57
2019-02-15T04:57:23.394Z,1027.58
2019-02-15T04:58:23.371Z,1027.55
2019-02-15T04:59:23.334Z,1027.59
2019-02-15T05:00:23.309Z,1027.56
2019-02-15T05:01:23.282Z,1027.58
2019-02-15T05:02:23.252Z,1027.56
2019-02-15T05:03:23.227Z,1027.52
2019-02-15T05:04:23.200Z,1027.55
2019-02-15T05:05:23.171Z,1027.53
2019-02-15T05:06:23.153Z,1027.54
2019-02-15T05:07:23.118Z,1027.52
2019-02-15T05:08:23.093Z,1027.49
2019-02-15T05:09:23.999Z,1027.50
2019-02-15T05:10:23.034Z,1027.52
2019-02-15T05:11:23.009Z,1027.47
2019-02-15T05:12:22.982Z,1027.46
2019-02-15T05:13:22.962Z,1027.46
2019-02-15T05:14:22.928Z,1027.49
2019-02-15T05:15:22.900Z,1027.48
2019-02-15T05:16:22.891Z,1027.48
2019-02-15T05:17:22.845Z,1027.52
2019-02-15T05:18:22.827Z,1027.50
2019-02-15T05:19:22.790Z,1027.51
2019-02-15T05:20:22.763Z,1027.45
2019-02-15T05:21:22.735Z,1027.48
2019-02-15T05:22:22.708Z,1027.48
2019-02-15T05:23:22.686Z,1027.46
2019-02-15T05:24:22.669Z,1027.45
2019-02-15T05:25:22.634Z,1027.44
2019-02-15T05:26:22.600Z,1027.42
2019-02-15T05:27:22.572Z,1027.44
2019-02-15T05:28:22.549Z,1027.50
2019-02-15T05:29:22.520Z,1027.49
2019-02-15T05:30:22.497Z,1027.49
2019-02-15T05:31:22.489Z,1027.49
2019-02-15T05:32:22.537Z,1027.49
2019-02-15T05:33:22.426Z,1027.53
2019-02-15T05:34:22.388Z,1027.52
2019-02-15T05:35:22.354Z,1027.48
2019-02-15T05:36:22.335Z,1027.48
2019-02-15T05:37:22.302Z,1027.49
2019-02-15T05:38:22.276Z,1027.50
2019-02-15T05:39:22.259Z,1027.48
2019-02-15T05:40:22.237Z,1027.47
2019-02-15T05:41:22.192Z,1027.48
2019-02-15T05:42:22.163Z,1027.48
2019-02-15T05:43:22.136Z,1027.45
2019-02-15T05:44:22.116Z,1027.46
2019-02-15T05:45:22.084Z,1027.45
2019-02-15T05:46:22.059Z,1027.44
2019-02-15T05:47:22.032Z,1027.48
2019-02-15T05:48:22.011Z,1027.44
2019-02-15T05:49:21.975Z,1027.43
2019-02-15T05:50:21.947Z,1027.43
2019-02-15T05:51:21.923Z,1027.48
2019-02-15T05:52:21.893Z,1027.44
2019-02-15T05:53:21.871Z,1027.45
2019-02-15T05:54:21.837Z,1027.46
2019-02-15T05:55:21.811Z,1027.50
2019-02-15T05:56:21.784Z,1027.49
2019-02-15T05:57:21.759Z,1027.46
2019-02-15T05:58:21.728Z,1027.47
2019-02-15T05:59:21.707Z,1027.47
2019-02-15T06:00:21.685Z,1027.49
2019-02-15T06:01:21.648Z,1027.46
2019-02-15T06:02:21.627Z,1027.45
2019-02-15T06:03:21.593Z,1027.44
2019-02-15T06:04:21.583Z,1027.40
2019-02-15T06:05:21.541Z,1027.36
2019-02-15T06:06:21.510Z,1027.39
2019-02-15T06:07:21.482Z,1027.37
2019-02-15T06:08:21.457Z,1027.36
2019-02-15T06:09:21.430Z,1027.32
2019-02-15T06:10:21.403Z,1027.29
2019-02-15T06:11:21.378Z,1027.33
2019-02-15T06:12:21.349Z,1027.32
2019-02-15T06:13:21.325Z,1027.35
2019-02-15T06:14:21.354Z,1027.37
2019-02-15T06:15:21.274Z,1027.35
2019-02-15T06:16:21.240Z,1027.37
2019-02-15T06:17:21.231Z,1027.36
2019-02-15T06:18:21.188Z,1027.38
2019-02-15T06:19:21.163Z,1027.36
2019-02-15T06:20:21.136Z,1027.36
2019-02-15T06:21:21.121Z,1027.36
2019-02-15T06:22:21.085Z,1027.42
2019-02-15T06:23:21.050Z,1027.39
2019-02-15T06:24:21.023Z,1027.43
2019-02-15T06:25:20.998Z,1027.39
2019-02-15T06:26:20.978Z,1027.41
2019-02-15T06:27:20.942Z,1027.43
2019-02-15T06:28:20.923Z,1027.41
2019-02-15T06:29:20.894Z,1027.42
2019-02-15T06:30:20.878Z,1027.42
2019-02-15T06:31:20.833Z,1027.49
2019-02-15T06:32:20.805Z,1027.40
2019-02-15T06:33:20.797Z,1027.46
2019-02-15T06:34:20.753Z,1027.45
2019-02-15T06:35:20.726Z,1027.46
2019-02-15T06:36:20.697Z,1027.42
2019-02-15T06:37:20.671Z,1027.49
2019-02-15T06:38:20.651Z,1027.52
2019-02-15T06:39:20.615Z,1027.49
2019-02-15T06:40:20.588Z,1027.54
2019-02-15T06:41:20.570Z,1027.53
2019-02-15T06:42:20.536Z,1027.57
2019-02-15T06:43:20.521Z,1027.47
2019-02-15T06:44:20.490Z,1027.53
2019-02-15T06:45:25.057Z,1027.51
2019-02-15T06:46:20.427Z,1027.53
2019-02-15T06:47:20.399Z,1027.50
2019-02-15T06:48:20.383Z,1027.49
2019-02-15T06:49:20.346Z,1027.45
2019-02-15T06:50:20.328Z,1027.42
2019-02-15T06:51:20.308Z,1027.41
2019-02-15T06:52:20.267Z,1027.45
2019-02-15T06:53:20.252Z,1027.41
2019-02-15T06:54:20.218Z,1027.41
2019-02-15T06:55:20.191Z,1027.41
2019-02-15T06:56:20.157Z,1027.40
2019-02-15T06:57:20.133Z,1027.43
2019-02-15T06:58:20.101Z,1027.43
2019-02-15T06:59:20.083Z,1027.44
2019-02-15T07:00:20.051Z,1027.43
2019-02-15T07:01:20.022Z,1027.48
2019-02-15T07:02:19.993Z,1027.49
2019-02-15T07:03:19.965Z,1027.48
2019-02-15T07:04:19.940Z,1027.46
2019-02-15T07:05:19.920Z,1027.49
2019-02-15T07:06:19.891Z,1027.48
2019-02-15T07:07:19.866Z,1027.46
2019-02-15T07:08:19.831Z,1027.48
2019-02-15T07:09:19.809Z,1027.49
2019-02-15T07:10:19.778Z,1027.49
2019-02-15T07:11:19.759Z,1027.48
2019-02-15T07:12:19.723Z,1027.47
2019-02-15T07:13:19.697Z,1027.53
2019-02-15T07:14:20.969Z,1027.50
2019-02-15T07:15:19.742Z,1027.49
2019-02-15T07:16:19.639Z,1027.49
2019-02-15T07:17:19.586Z,1027.55
2019-02-15T07:18:19.560Z,1027.48
2019-02-15T07:19:19.533Z,1027.51
2019-02-15T07:20:19.511Z,1027.48
2019-02-15T07:21:19.537Z,1027.48
2019-02-15T07:22:19.452Z,1027.51
2019-02-15T07:23:19.429Z,1027.47
2019-02-15T07:24:19.406Z,1027.50
2019-02-15T07:25:19.372Z,1027.55
2019-02-15T07:26:19.373Z,1027.54
2019-02-15T07:27:19.321Z,1027.55
2019-02-15T07:28:19.306Z,1027.53
2019-02-15T07:29:19.274Z,1027.52
2019-02-15T07:30:19.244Z,1027.52
2019-02-15T07:31:19.209Z,1027.51
2019-02-15T07:32:19.183Z,1027.51
2019-02-15T07:33:19.158Z,1027.53
2019-02-15T07:34:19.135Z,1027.53
2019-02-15T07:35:19.115Z,1027.51
2019-02-15T07:36:19.084Z,1027.55
2019-02-15T07:37:19.049Z,1027.52
2019-02-15T07:38:19.021Z,1027.54
2019-02-15T07:39:18.992Z,1027.52
2019-02-15T07:40:18.999Z,1027.51
2019-02-15T07:41:18.940Z,1027.49
2019-02-15T07:42:21.063Z,1027.51
2019-02-15T07:43:18.886Z,1027.48
2019-02-15T07:44:18.859Z,1027.52
2019-02-15T07:45:18.834Z,1027.46
2019-02-15T07:46:18.806Z,1027.51
2019-02-15T07:47:18.785Z,1027.53
2019-02-15T07:48:18.752Z,1027.51
2019-02-15T07:49:26.697Z,1027.51
2019-02-15T07:50:18.699Z,1027.47
2019-02-15T07:51:18.672Z,1027.53
2019-02-15T07:52:18.649Z,1027.53
2019-02-15T07:53:18.618Z,1027.48
2019-02-15T07:54:18.591Z,1027.48
2019-02-15T07:55:18.575Z,1027.48
2019-02-15T07:56:18.538Z,1027.49
2019-02-15T07:57:18.563Z,1027.49
2019-02-15T07:58:18.489Z,1027.52
2019-02-15T07:59:18.458Z,1027.48
2019-02-15T08:00:18.438Z,1027.47
2019-02-15T08:01:18.407Z,1027.49
2019-02-15T08:02:18.389Z,1027.47
2019-02-15T08:03:18.352Z,1027.47
2019-02-15T08:04:18.323Z,1027.51
2019-02-15T08:05:18.301Z,1027.50
2019-02-15T08:06:18.273Z,1027.47
2019-02-15T08:07:18.244Z,1027.45
2019-02-15T08:08:18.224Z,1027.44
2019-02-15T08:09:18.199Z,1027.45
2019-02-15T08:10:18.164Z,1027.39
2019-02-15T08:11:18.140Z,1027.38
2019-02-15T08:12:18.130Z,1027.38
2019-02-15T08:13:18.086Z,1027.39
2019-02-15T08:14:18.058Z,1027.37
2019-02-15T08:15:18.038Z,1027.35
2019-02-15T08:16:18.012Z,1027.36
2019-02-15T08:17:17.991Z,1027.34
2019-02-15T08:18:17.958Z,1027.30
2019-02-15T08:19:17.928Z,1027.33
2019-02-15T08:20:17.901Z,1027.31
2019-02-15T08:21:17.876Z,1027.30
2019-02-15T08:22:17.853Z,1027.30
2019-02-15T08:23:17.821Z,1027.33
2019-02-15T08:24:17.798Z,1027.30
2019-02-15T08:25:17.778Z,1027.31
2019-02-15T08:26:17.756Z,1027.26
2019-02-15T08:27:17.715Z,1027.32
2019-02-15T08:28:17.690Z,1027.28
2019-02-15T08:29:17.684Z,1027.31
2019-02-15T08:30:17.636Z,1027.28
2019-02-15T08:31:17.610Z,1027.30
2019-02-15T08:32:17.592Z,1027.29
2019-02-15T08:33:17.573Z,1027.30
2019-02-15T08:34:17.533Z,1027.32
2019-02-15T08:35:17.510Z,1027.26
2019-02-15T08:36:17.493Z,1027.32
2019-02-15T08:37:17.466Z,1027.30
2019-02-15T08:38:17.427Z,1027.26
2019-02-15T08:39:17.401Z,1027.31
2019-02-15T08:40:17.378Z,1027.29
2019-02-15T08:41:17.358Z,1027.27
2019-02-15T08:42:17.329Z,1027.27
2019-02-15T08:43:17.299Z,1027.29
2019-02-15T08:44:17.285Z,1027.24
2019-02-15T08:45:17.248Z,1027.24
2019-02-15T08:46:17.223Z,1027.27
2019-02-15T08:47:17.199Z,1027.28
2019-02-15T08:48:17.178Z,1027.28
2019-02-15T08:49:17.161Z,1027.30
2019-02-15T08:50:17.132Z,1027.31
2019-02-15T08:51:17.091Z,1027.28
2019-02-15T08:52:17.065Z,1027.33
2019-02-15T08:53:17.053Z,1027.30
2019-02-15T08:54:17.025Z,1027.29
2019-02-15T08:55:16.989Z,1027.30
2019-02-15T08:56:16.961Z,1027.29
2019-02-15T08:57:16.937Z,1027.31
2019-02-15T08:58:16.910Z,1027.32
2019-02-15T08:59:16.886Z,1027.32
2019-02-15T09:00:16.861Z,1027.30
2019-02-15T09:01:16.836Z,1027.29
2019-02-15T09:02:16.810Z,1027.29
2019-02-15T09:03:16.785Z,1027.31
2019-02-15T09:04:16.758Z,1027.28
2019-02-15T09:05:16.735Z,1027.32
2019-02-15T09:06:16.706Z,1027.26
2019-02-15T09:07:16.689Z,1027.26
2019-02-15T09:08:16.677Z,1027.24
2019-02-15T09:09:16.632Z,1027.26
2019-02-15T09:10:16.603Z,1027.21
2019-02-15T09:11:16.579Z,1027.22
2019-02-15T09:12:16.554Z,1027.27
2019-02-15T09:13:16.532Z,1027.25
2019-02-15T09:14:16.511Z,1027.22
2019-02-15T09:15:16.479Z,1027.25
2019-02-15T09:16:16.468Z,1027.18
2019-02-15T09:17:16.427Z,1027.19
2019-02-15T09:18:16.400Z,1027.21
2019-02-15T09:19:16.378Z,1027.20
2019-02-15T09:20:16.352Z,1027.22
2019-02-15T09:21:16.339Z,1027.24
2019-02-15T09:22:16.300Z,1027.26
2019-02-15T09:23:16.275Z,1027.28
2019-02-15T09:24:16.251Z,1027.25
2019-02-15T09:25:16.226Z,1027.27
2019-02-15T09:26:18.129Z,1027.30
2019-02-15T09:27:16.181Z,1027.26
2019-02-15T09:28:16.161Z,1027.25
2019-02-15T09:29:16.127Z,1027.25
2019-02-15T09:30:16.112Z,1027.27
2019-02-15T09:31:16.077Z,1027.25
2019-02-15T09:32:16.049Z,1027.42
2019-02-15T09:33:16.028Z,1027.62
2019-02-15T09:34:16.000Z,1027.66
2019-02-15T09:35:15.977Z,1027.69
2019-02-15T09:36:15.956Z,1027.63
2019-02-15T09:37:15.933Z,1027.61
2019-02-15T09:38:15.904Z,1027.57
2019-02-15T09:39:15.880Z,1027.67
2019-02-15T09:40:15.868Z,1027.70
2019-02-15T09:41:15.834Z,1027.68
2019-02-15T09:42:15.819Z,1027.60
2019-02-15T09:43:15.794Z,1027.58
2019-02-15T09:44:15.769Z,1027.46
2019-02-15T09:45:15.756Z,1027.49
2019-02-15T09:46:19.861Z,1027.53
2019-02-15T09:47:15.713Z,1027.52
2019-02-15T09:48:41.431Z,1027.53
2019-02-15T09:49:15.677Z,1027.54
2019-02-15T09:50:15.970Z,1027.54
2019-02-15T09:51:15.654Z,1027.55
2019-02-15T09:52:18.233Z,1027.49
2019-02-15T09:53:15.591Z,1027.52
2019-02-15T09:54:15.564Z,1027.51
2019-02-15T09:55:15.550Z,1027.48
2019-02-15T09:56:15.534Z,1027.45
2019-02-15T09:57:15.525Z,1027.46
2019-02-15T09:58:16.540Z,1027.45
2019-02-15T10:00:15.479Z,1027.40
2019-02-15T10:01:15.463Z,1027.39
2019-02-15T10:02:15.469Z,1027.40
2019-02-15T10:03:15.410Z,1027.36
2019-02-15T10:04:15.406Z,1027.34
2019-02-15T10:05:15.379Z,1027.34
2019-02-15T10:06:15.344Z,1027.32
2019-02-15T10:07:15.328Z,1027.34
2019-02-15T10:08:15.310Z,1027.37
2019-02-15T10:09:15.305Z,1027.34
2019-02-15T10:10:15.276Z,1027.32
2019-02-15T10:11:15.264Z,1027.31
2019-02-15T10:12:15.242Z,1027.31
2019-02-15T10:13:15.227Z,1027.33
2019-02-15T10:14:15.217Z,1027.35
2019-02-15T10:16:15.175Z,1027.27
2019-02-15T10:17:15.162Z,1027.30
2019-02-15T10:18:15.143Z,1027.33
2019-02-15T10:19:22.208Z,1027.31
2019-02-15T10:20:15.117Z,1027.34
2019-02-15T10:21:15.103Z,1027.38
2019-02-15T10:22:15.081Z,1027.35
2019-02-15T10:23:15.064Z,1027.32
2019-02-15T10:24:15.057Z,1027.33
2019-02-15T10:25:15.032Z,1027.38
2019-02-15T10:26:15.018Z,1027.36
2019-02-15T10:27:15.002Z,1027.36
2019-02-15T10:28:14.994Z,1027.36
2019-02-15T10:29:14.978Z,1027.32
2019-02-15T10:30:14.955Z,1027.36
2019-02-15T10:31:14.943Z,1027.32
2019-02-15T10:32:14.933Z,1027.35
2019-02-15T10:33:14.912Z,1027.38
2019-02-15T10:34:14.902Z,1027.38
2019-02-15T10:35:14.884Z,1027.38
2019-02-15T10:36:14.863Z,1027.38
2019-02-15T10:37:14.860Z,1027.37
2019-02-15T10:38:14.847Z,1027.34
2019-02-15T10:39:14.870Z,1027.32
2019-02-15T10:40:14.802Z,1027.29
2019-02-15T10:41:14.788Z,1027.31
2019-02-15T10:42:14.770Z,1027.27
2019-02-15T10:43:14.765Z,1027.28
2019-02-15T10:44:14.744Z,1027.26
2019-02-15T10:45:14.726Z,1027.27
2019-02-15T10:46:14.709Z,1027.25
2019-02-15T10:47:24.422Z,1027.24
2019-02-15T10:48:14.687Z,1027.26
2019-02-15T10:49:14.664Z,1027.20
2019-02-15T10:50:14.652Z,1027.23
2019-02-15T10:51:14.643Z,1027.21
2019-02-15T10:52:14.622Z,1027.22
2019-02-15T10:53:14.608Z,1027.21
2019-02-15T10:54:14.590Z,1027.17
2019-02-15T10:55:14.573Z,1027.18
2019-02-15T10:56:14.562Z,1027.14
2019-02-15T10:57:14.561Z,1027.15
2019-02-15T10:58:14.529Z,1027.13
2019-02-15T10:59:14.529Z,1027.13
2019-02-15T11:00:14.507Z,1027.15
2019-02-15T11:01:14.484Z,1027.10
2019-02-15T11:02:14.470Z,1027.10
2019-02-15T11:03:14.464Z,1027.09
2019-02-15T11:04:14.440Z,1027.12
2019-02-15T11:05:14.422Z,1027.07
2019-02-15T11:06:14.422Z,1027.06
2019-02-15T11:07:14.393Z,1027.06
2019-02-15T11:08:14.378Z,1027.05
2019-02-15T11:09:14.363Z,1027.03
2019-02-15T11:10:14.344Z,1027.01
2019-02-15T11:11:14.329Z,1027.03
2019-02-15T11:12:14.315Z,1027.03
2019-02-15T11:13:14.303Z,1026.98
2019-02-15T11:14:14.279Z,1026.97
2019-02-15T11:15:14.269Z,1026.99
2019-02-15T11:16:14.258Z,1026.96
2019-02-15T11:17:14.244Z,1026.94
2019-02-15T11:18:14.222Z,1026.93
2019-02-15T11:19:14.202Z,1026.91
2019-02-15T11:20:14.186Z,1026.92
2019-02-15T11:21:14.179Z,1026.89
2019-02-15T11:22:14.156Z,1026.83
2019-02-15T11:23:14.145Z,1026.78
2019-02-15T11:24:14.122Z,1026.82
2019-02-15T11:25:14.111Z,1026.78
2019-02-15T11:26:14.095Z,1026.79
2019-02-15T11:27:14.111Z,1026.77
2019-02-15T11:28:14.162Z,1026.75
2019-02-15T11:29:14.044Z,1026.75
2019-02-15T11:30:14.033Z,1026.77
2019-02-15T11:31:14.012Z,1026.70
2019-02-15T11:32:13.996Z,1026.73
2019-02-15T11:33:13.979Z,1026.71
2019-02-15T11:34:13.963Z,1026.67
2019-02-15T11:35:13.956Z,1026.64
2019-02-15T11:36:13.933Z,1026.66
2019-02-15T11:37:13.916Z,1026.64
2019-02-15T11:38:13.903Z,1026.65
2019-02-15T11:39:13.890Z,1026.62
2019-02-15T11:40:13.867Z,1026.64
2019-02-15T11:41:13.851Z,1026.61
2019-02-15T11:42:13.834Z,1026.62
2019-02-15T11:43:15.092Z,1026.59
2019-02-15T11:44:13.803Z,1026.57
2019-02-15T11:45:13.795Z,1026.52
2019-02-15T11:46:13.769Z,1026.52
2019-02-15T11:47:13.759Z,1026.50
2019-02-15T11:48:13.745Z,1026.47
2019-02-15T11:49:13.721Z,1026.50
2019-02-15T11:50:13.703Z,1026.49
2019-02-15T11:51:13.688Z,1026.47
2019-02-15T11:52:13.670Z,1026.46
2019-02-15T11:53:13.667Z,1026.42
2019-02-15T11:54:23.107Z,1026.43
2019-02-15T11:55:13.623Z,1026.43
2019-02-15T11:56:13.610Z,1026.39
2019-02-15T11:57:13.589Z,1026.39
2019-02-15T11:58:13.570Z,1026.38
2019-02-15T11:59:13.560Z,1026.35
2019-02-15T12:00:14.503Z,1026.31
2019-02-15T12:01:13.576Z,1026.29
2019-02-15T12:02:13.511Z,1026.27
2019-02-15T12:03:13.503Z,1026.27
2019-02-15T12:04:13.475Z,1026.23
2019-02-15T12:05:13.458Z,1026.25
2019-02-15T12:06:13.437Z,1026.24
2019-02-15T12:07:13.427Z,1026.25